Time;durP1;ratioP1;P1;durP2;ratioP2;P2;SDS_P1;SDS_P2;PMS_P1;PMS_P2;Temp;Humidity;BMP_temperature;BMP_pressure;BME280_temperature;BME280_humidity;BME280_pressure;Samples;Min_cycle;Max_cycle;Signal;HPM_P1;HPM_P2
2021/01/01 00:01:54;;;;;;;25.12;11.88;;;;;;;12.16;71.47;99843.20;1726181;82;21995;-70
2021/01/01 00:04:22;;;;;;;21.73;11.70;;;;;;;12.17;71.44;99835.70;1726131;83;21190;-70
2021/01/01 00:06:50;;;;;;;20.70;12.15;;;;;;;12.14;71.56;99838.42;1753102;82;21596;-70
2021/01/01 00:09:18;;;;;;;19.42;11.10;;;;;;;12.19;71.38;99845.77;1756191;82;21579;-70
2021/01/01 00:11:50;;;;;;;23.20;11.95;;;;;;;12.12;71.52;99845.52;1756118;82;21151;-70
2021/01/01 00:14:17;;;;;;;20.68;11.73;;;;;;;12.14;71.45;99831.36;1755487;82;21626;-70
2021/01/01 00:16:45;;;;;;;19.45;11.12;;;;;;;12.11;71.46;99830.16;1739310;82;21632;-69
2021/01/01 00:19:13;;;;;;;19.67;11.38;;;;;;;12.09;71.57;99835.04;1726434;82;21602;-70
2021/01/01 00:21:40;;;;;;;15.63;10.75;;;;;;;12.16;71.34;99824.27;1726246;82;21300;-69
2021/01/01 00:24:08;;;;;;;19.45;11.60;;;;;;;12.04;71.66;99824.16;1730383;82;21198;-69
2021/01/01 00:26:36;;;;;;;21.02;12.58;;;;;;;12.05;71.75;99824.57;1753367;82;21150;-71
2021/01/01 00:29:06;;;;;;;19.55;11.55;;;;;;;12.08;71.77;99825.39;1756230;82;21155;-69
2021/01/01 00:31:33;;;;;;;18.05;10.53;;;;;;;12.12;71.63;99827.05;1756079;80;21320;-69
2021/01/01 00:34:01;;;;;;;24.35;12.43;;;;;;;12.05;71.96;99830.31;1755175;82;21654;-69
2021/01/01 00:36:29;;;;;;;19.52;11.08;;;;;;;12.07;71.94;99822.34;1756457;82;21627;-69
2021/01/01 00:38:56;;;;;;;18.35;11.45;;;;;;;12.15;71.73;99826.96;1755794;82;21645;-70
2021/01/01 00:41:26;;;;;;;21.75;11.68;;;;;;;12.13;71.83;99826.14;1754735;82;21273;-70
2021/01/01 00:43:53;;;;;;;18.40;11.70;;;;;;;12.16;71.67;99833.50;1755669;82;21586;-70
2021/01/01 00:46:22;;;;;;;18.10;11.25;;;;;;;12.10;71.76;99833.70;1755887;82;21175;-71
2021/01/01 00:48:50;;;;;;;21.25;11.85;;;;;;;12.13;71.82;99842.84;1754561;82;21906;-70
2021/01/01 00:51:29;;;;;;;23.27;12.50;;;;;;;12.16;71.78;99843.20;1739138;81;21322;-70
2021/01/01 00:53:57;;;;;;;24.70;12.40;;;;;;;12.20;71.67;99850.13;1747780;81;21701;-70
2021/01/01 00:56:26;;;;;;;26.95;12.82;;;;;;;12.15;71.79;99855.52;1748193;82;21179;-70
2021/01/01 00:58:55;;;;;;;19.02;11.60;;;;;;;12.23;71.56;99854.44;1748330;82;21175;-70
2021/01/01 01:01:25;;;;;;;22.20;12.30;;;;;;;12.27;71.37;99850.38;1727401;81;21578;-70
2021/01/01 01:03:54;;;;;;;21.05;11.35;;;;;;;12.24;71.35;99854.86;1735162;82;21693;-70
2021/01/01 01:06:22;;;;;;;21.07;12.30;;;;;;;12.16;71.54;99852.44;1748088;82;21543;-69
2021/01/01 01:08:50;;;;;;;21.80;12.13;;;;;;;12.24;71.33;99839.02;1748069;82;21155;-70
2021/01/01 01:11:27;;;;;;;21.20;11.65;;;;;;;12.09;71.73;99833.72;1748079;81;21193;-72
2021/01/01 01:13:56;;;;;;;21.40;11.57;;;;;;;12.21;71.30;99838.67;1748221;82;21206;-70
2021/01/01 01:16:26;;;;;;;23.83;11.57;;;;;;;12.18;71.35;99839.60;1748074;81;21115;-70
2021/01/01 01:18:54;;;;;;;27.52;12.33;;;;;;;12.19;71.38;99840.48;1747437;82;21131;-70
2021/01/01 01:21:22;;;;;;;21.50;11.12;;;;;;;12.17;71.39;99841.83;1748233;81;21604;-70
2021/01/01 01:23:50;;;;;;;19.40;11.05;;;;;;;12.12;71.54;99842.44;1748257;82;21610;-70
2021/01/01 01:26:18;;;;;;;23.83;11.50;;;;;;;12.12;71.53;99841.12;1741829;81;21135;-69
2021/01/01 01:28:48;;;;;;;18.15;10.28;;;;;;;12.06;71.73;99842.59;1723653;82;21179;-70
2021/01/01 01:31:16;;;;;;;23.25;11.45;;;;;;;12.14;71.45;99848.50;1718550;82;21317;-71
2021/01/01 01:33:44;;;;;;;24.02;11.28;;;;;;;12.15;71.37;99840.16;1745430;82;21543;-71
2021/01/01 01:36:13;;;;;;;18.00;9.98;;;;;;;12.13;71.37;99841.53;1747480;81;21979;-70
2021/01/01 01:38:41;;;;;;;18.32;10.53;;;;;;;12.15;71.28;99837.52;1718948;82;21305;-70
2021/01/01 01:41:09;;;;;;;20.52;10.35;;;;;;;12.16;71.09;99842.73;1718413;82;21649;-70
2021/01/01 01:43:36;;;;;;;22.32;10.90;;;;;;;12.09;71.36;99845.59;1720867;82;21562;-70
2021/01/01 01:46:04;;;;;;;18.60;10.90;;;;;;;12.01;71.63;99847.13;1742284;82;21205;-70
2021/01/01 01:48:34;;;;;;;20.27;10.53;;;;;;;12.03;71.66;99851.91;1718538;83;21159;-71
2021/01/01 01:51:06;;;;;;;21.87;11.28;;;;;;;12.00;71.88;99845.40;1738749;81;21107;-70
2021/01/01 01:53:42;;;;;;;24.12;11.73;;;;;;;11.99;72.03;99844.95;1761562;81;21542;-72
2021/01/01 01:56:15;;;;;;;18.70;10.95;;;;;;;12.07;72.06;99844.33;1804513;77;22221;-70
2021/01/01 01:58:43;;;;;;;18.80;11.28;;;;;;;11.99;72.20;99836.60;1739365;81;21151;-68
2021/01/01 02:01:11;;;;;;;20.30;11.65;;;;;;;12.05;72.04;99837.76;1757194;80;21650;-69
2021/01/01 02:03:40;;;;;;;24.80;12.43;;;;;;;12.05;72.04;99843.03;1736384;81;21123;-69
2021/01/01 02:06:07;;;;;;;21.70;11.28;;;;;;;12.18;71.68;99844.88;1731725;82;21594;-70
2021/01/01 02:08:36;;;;;;;18.12;10.68;;;;;;;12.16;71.72;99849.80;1731685;83;21669;-68
2021/01/01 02:11:04;;;;;;;22.52;10.80;;;;;;;12.24;71.45;99848.26;1698023;83;21331;-69
2021/01/01 02:13:32;;;;;;;22.45;11.88;;;;;;;12.17;71.65;99849.74;1721469;82;21162;-68
2021/01/01 02:16:00;;;;;;;17.70;9.70;;;;;;;12.13;71.75;99845.48;1731621;83;21582;-68
2021/01/01 02:18:38;;;;;;;27.17;13.93;;;;;;;12.12;71.76;99850.35;1727010;83;21119;-71
2021/01/01 02:21:06;;;;;;;22.67;11.50;;;;;;;12.09;71.80;99849.55;1747834;81;21144;-69
2021/01/01 02:23:35;;;;;;;20.68;10.18;;;;;;;12.11;71.72;99849.94;1761766;81;21154;-71
2021/01/01 02:26:02;;;;;;;25.77;11.10;;;;;;;12.09;71.82;99852.19;1761992;80;21147;-71
2021/01/01 02:28:31;;;;;;;23.92;12.82;;;;;;;12.04;71.90;99856.28;1756332;81;21150;-69
2021/01/01 02:30:58;;;;;;;19.30;11.35;;;;;;;12.02;71.97;99851.03;1757852;81;21142;-70
2021/01/01 02:33:26;;;;;;;21.73;10.45;;;;;;;11.99;72.11;99845.83;1762012;81;21151;-71
2021/01/01 02:35:54;;;;;;;17.00;10.35;;;;;;;11.93;72.40;99853.02;1761981;81;21601;-70
2021/01/01 02:38:21;;;;;;;23.70;11.25;;;;;;;11.90;72.43;99852.66;1761990;81;21574;-71
2021/01/01 02:40:49;;;;;;;28.47;12.40;;;;;;;11.80;72.80;99854.65;1759951;81;21283;-71
2021/01/01 02:43:17;;;;;;;26.48;12.18;;;;;;;11.84;72.63;99860.73;1739707;81;21158;-71
2021/01/01 02:45:45;;;;;;;26.17;11.65;;;;;;;11.78;72.94;99855.14;1731709;82;21107;-69
2021/01/01 02:48:16;;;;;;;23.38;12.00;;;;;;;11.83;72.80;99855.89;1744518;81;21562;-69
2021/01/01 02:50:44;;;;;;;20.75;12.33;;;;;;;11.83;72.86;99853.25;1761553;80;21151;-70
2021/01/01 02:53:12;;;;;;;24.12;12.13;;;;;;;11.84;73.02;99862.90;1761757;81;21621;-71
2021/01/01 02:55:39;;;;;;;22.20;12.10;;;;;;;11.78;73.12;99853.83;1753428;80;21584;-69
2021/01/01 02:58:07;;;;;;;25.37;12.80;;;;;;;11.77;73.16;99860.47;1742169;81;21285;-69
2021/01/01 03:00:38;;;;;;;26.33;12.85;;;;;;;11.80;72.86;99865.20;1748674;82;21555;-71
2021/01/01 03:03:06;;;;;;;23.95;12.00;;;;;;;11.62;73.37;99863.05;1749039;82;21151;-71
2021/01/01 03:05:35;;;;;;;26.00;12.20;;;;;;;11.65;73.11;99859.02;1748589;82;21181;-71
2021/01/01 03:08:04;;;;;;;19.82;11.28;;;;;;;11.59;73.33;99865.28;1747603;82;21163;-69
2021/01/01 03:10:32;;;;;;;20.32;10.95;;;;;;;11.58;73.31;99853.89;1748176;82;21151;-69
2021/01/01 03:13:00;;;;;;;25.57;11.48;;;;;;;11.59;73.18;99850.79;1748542;82;21300;-69
2021/01/01 03:15:28;;;;;;;23.18;12.30;;;;;;;11.57;73.30;99854.80;1745296;82;21135;-71
2021/01/01 03:17:55;;;;;;;22.58;11.03;;;;;;;11.49;73.67;99855.87;1720311;82;21519;-70
2021/01/01 03:20:23;;;;;;;19.00;11.68;;;;;;;11.51;73.65;99852.31;1718365;83;21602;-70
2021/01/01 03:22:51;;;;;;;17.87;9.93;;;;;;;11.51;73.71;99851.42;1699915;84;21140;-69
2021/01/01 03:25:19;;;;;;;21.73;11.60;;;;;;;11.58;73.29;99850.38;1695700;83;21601;-71
2021/01/01 03:27:46;;;;;;;18.10;11.35;;;;;;;11.50;73.34;99858.48;1702141;84;21167;-70
2021/01/01 03:30:15;;;;;;;22.82;11.18;;;;;;;11.42;73.45;99860.00;1704545;84;21308;-70
2021/01/01 03:32:43;;;;;;;20.10;11.57;;;;;;;11.33;73.62;99862.84;1704708;84;21603;-69
2021/01/01 03:35:11;;;;;;;20.30;11.43;;;;;;;11.31;73.52;99858.91;1704212;84;21722;-70
2021/01/01 03:37:39;;;;;;;21.33;12.05;;;;;;;11.26;73.44;99864.73;1718488;82;21170;-70
2021/01/01 03:40:08;;;;;;;20.12;10.63;;;;;;;11.21;73.45;99861.38;1718474;83;21567;-70
2021/01/01 03:42:35;;;;;;;20.30;10.88;;;;;;;11.24;73.27;99869.20;1718717;83;21127;-70
2021/01/01 03:45:05;;;;;;;25.40;10.00;;;;;;;11.16;73.32;99869.36;1734292;82;21612;-69
2021/01/01 03:47:32;;;;;;;17.32;11.60;;;;;;;11.20;73.12;99869.30;1748422;81;21147;-70
2021/01/01 03:50:00;;;;;;;20.55;10.53;;;;;;;11.17;73.08;99876.83;1748184;82;21278;-68
2021/01/01 03:52:28;;;;;;;25.02;11.55;;;;;;;10.93;73.81;99881.72;1748164;82;21626;-69
2021/01/01 03:54:56;;;;;;;16.73;10.93;;;;;;;10.96;73.62;99886.08;1737376;82;21594;-69
2021/01/01 03:57:23;;;;;;;21.82;12.00;;;;;;;10.91;73.93;99881.36;1718532;82;21630;-69
2021/01/01 03:59:51;;;;;;;18.12;11.68;;;;;;;10.98;73.67;99879.01;1718449;83;21614;-71
2021/01/01 04:02:18;;;;;;;25.57;13.75;;;;;;;10.95;73.96;99887.83;1721297;82;21676;-71
2021/01/01 04:04:46;;;;;;;19.27;13.00;;;;;;;10.74;74.74;99881.72;1747501;81;21595;-70
2021/01/01 04:07:13;;;;;;;23.57;13.68;;;;;;;10.76;74.67;99883.88;1748420;81;21554;-71
2021/01/01 04:09:41;;;;;;;25.25;13.48;;;;;;;10.70;75.00;99882.22;1748354;81;21603;-71
2021/01/01 04:12:09;;;;;;;28.57;14.25;;;;;;;10.73;74.66;99879.52;1747895;82;21602;-69
2021/01/01 04:14:37;;;;;;;25.75;14.13;;;;;;;10.70;74.70;99882.22;1731744;81;21618;-69
2021/01/01 04:17:04;;;;;;;18.27;11.88;;;;;;;10.64;74.83;99882.34;1718365;83;21543;-71
2021/01/01 04:19:32;;;;;;;22.93;11.85;;;;;;;10.71;74.49;99883.95;1718391;83;21682;-69
2021/01/01 04:21:59;;;;;;;24.72;12.85;;;;;;;10.68;74.35;99886.64;1737273;82;21099;-71
2021/01/01 04:24:27;;;;;;;23.57;10.60;;;;;;;10.68;74.21;99886.64;1746522;82;21096;-69
2021/01/01 04:26:54;;;;;;;20.45;11.15;;;;;;;10.62;74.16;99889.39;1748013;82;21196;-69
2021/01/01 04:29:22;;;;;;;22.17;10.75;;;;;;;10.59;73.98;99888.17;1748371;82;21571;-71
2021/01/01 04:31:49;;;;;;;23.05;11.78;;;;;;;10.53;74.01;99895.72;1747893;80;21104;-69
2021/01/01 04:34:17;;;;;;;15.43;9.43;;;;;;;10.45;74.07;99892.36;1719807;82;21277;-70
2021/01/01 04:36:45;;;;;;;18.37;9.40;;;;;;;10.36;74.06;99899.97;1718423;83;21174;-71
2021/01/01 04:39:12;;;;;;;19.65;11.18;;;;;;;10.31;74.04;99897.86;1726031;82;21261;-71
2021/01/01 04:41:41;;;;;;;16.42;9.70;;;;;;;10.24;74.01;99912.44;1747338;82;21547;-69
2021/01/01 04:44:09;;;;;;;15.32;9.05;;;;;;;10.14;74.37;99913.53;1748341;82;21590;-71
2021/01/01 04:46:37;;;;;;;16.45;8.73;;;;;;;10.11;74.26;99913.12;1748002;82;21555;-69
2021/01/01 04:49:05;;;;;;;17.52;9.23;;;;;;;10.12;74.07;99918.80;1748027;82;21527;-71
2021/01/01 04:51:33;;;;;;;17.25;8.80;;;;;;;10.07;74.13;99916.70;1739002;80;21159;-70
2021/01/01 04:54:03;;;;;;;22.55;9.83;;;;;;;10.04;74.07;99912.80;1711401;82;21280;-69
2021/01/01 04:56:31;;;;;;;18.20;9.58;;;;;;;10.01;74.02;99906.74;1744063;81;21273;-71
2021/01/01 04:58:59;;;;;;;17.15;9.35;;;;;;;9.97;73.99;99913.37;1751718;81;21558;-71
2021/01/01 05:01:27;;;;;;;14.93;9.33;;;;;;;9.96;74.01;99918.63;1681596;84;21141;-69
2021/01/01 05:03:54;;;;;;;18.98;9.73;;;;;;;9.94;73.97;99925.25;1690486;84;21569;-71
2021/01/01 05:06:31;;;;;;;17.87;9.75;;;;;;;9.89;73.92;99924.91;1711787;83;21587;-70
2021/01/01 05:08:59;;;;;;;15.80;8.48;;;;;;;9.86;73.99;99935.48;1685315;83;21158;-70
2021/01/01 05:11:27;;;;;;;13.58;8.33;;;;;;;9.84;73.89;99943.84;1710965;83;21145;-70
2021/01/01 05:13:57;;;;;;;15.32;8.13;;;;;;;9.80;73.85;99933.80;1689049;84;21563;-71
2021/01/01 05:16:25;;;;;;;14.73;7.92;;;;;;;9.79;73.85;99938.64;1693331;84;21151;-70
2021/01/01 05:18:53;;;;;;;14.25;7.97;;;;;;;9.72;74.01;99938.30;1705516;83;21661;-69
2021/01/01 05:21:28;;;;;;;15.08;7.83;;;;;;;9.71;74.01;99940.55;1696408;84;21631;-70
2021/01/01 05:23:56;;;;;;;14.10;7.55;;;;;;;9.67;73.94;99940.59;1696632;84;21589;-70
2021/01/01 05:26:27;;;;;;;12.33;7.65;;;;;;;9.67;73.83;99944.53;1696289;84;21203;-70
2021/01/01 05:29:10;;;;;;;14.80;7.20;;;;;;;9.67;73.76;99951.10;1696483;84;21298;-70
2021/01/01 05:31:39;;;;;;;13.22;7.67;;;;;;;9.65;73.73;99954.63;1678945;85;21183;-70
2021/01/01 05:34:13;;;;;;;11.48;6.75;;;;;;;9.69;73.42;99955.00;1686349;84;21163;-70
2021/01/01 05:36:42;;;;;;;11.68;6.30;;;;;;;9.62;73.59;99946.78;1707076;83;21571;-70
2021/01/01 05:39:21;;;;;;;11.95;6.85;;;;;;;9.60;73.63;99945.52;1684527;84;21196;-72
2021/01/01 05:41:53;;;;;;;15.53;6.62;;;;;;;9.60;73.51;99947.25;1678816;85;21611;-71
2021/01/01 05:44:31;;;;;;;13.53;7.58;;;;;;;9.60;73.50;99952.08;1699383;84;21571;-71
2021/01/01 05:47:04;;;;;;;13.68;6.45;;;;;;;9.58;73.45;99947.30;1706275;84;21182;-72
2021/01/01 05:49:37;;;;;;;9.58;5.90;;;;;;;9.59;73.45;99953.40;1695198;84;21686;-70
2021/01/01 05:52:15;;;;;;;12.35;6.33;;;;;;;9.55;73.53;99957.84;1708744;83;21207;-70
2021/01/01 05:54:45;;;;;;;16.10;6.62;;;;;;;9.57;73.51;99956.06;1719550;83;21191;-71
2021/01/01 05:57:14;;;;;;;10.78;6.60;;;;;;;9.56;73.52;99962.21;1700234;83;21615;-70
2021/01/01 05:59:46;;;;;;;11.22;5.78;;;;;;;9.56;73.56;99967.89;1712217;83;21611;-70
2021/01/01 06:02:13;;;;;;;11.33;6.10;;;;;;;9.56;73.45;99962.64;1740926;81;21290;-70
2021/01/01 06:04:41;;;;;;;9.08;5.12;;;;;;;9.60;73.32;99978.36;1748085;82;21649;-71
2021/01/01 06:07:11;;;;;;;9.95;5.87;;;;;;;9.62;73.25;99979.63;1740850;81;21179;-69
2021/01/01 06:09:39;;;;;;;11.83;6.17;;;;;;;9.55;72.85;99979.30;1748290;82;21131;-72
2021/01/01 06:12:10;;;;;;;13.15;6.40;;;;;;;9.50;72.76;99980.22;1747326;82;21143;-72
2021/01/01 06:14:42;;;;;;;10.98;5.95;;;;;;;9.48;72.60;99977.21;1747246;81;21321;-69
2021/01/01 06:17:17;;;;;;;10.90;5.37;;;;;;;9.46;72.77;99982.50;1746816;82;21162;-69
2021/01/01 06:19:54;;;;;;;10.58;5.28;;;;;;;9.48;72.67;99975.90;1747885;81;21551;-69
2021/01/01 06:22:27;;;;;;;11.78;5.30;;;;;;;9.55;72.85;99975.35;1748216;82;21156;-69
2021/01/01 06:24:58;;;;;;;10.68;5.60;;;;;;;9.59;72.86;99977.94;1745087;81;21571;-71
2021/01/01 06:27:27;;;;;;;;;;;;;;;9.68;72.83;99980.86;1722944;82;21284;-69
2021/01/01 06:30:02;;;;;;;8.95;4.55;;;;;;;9.76;72.65;99979.42;1718587;83;20158;-70
2021/01/01 06:32:34;;;;;;;12.90;5.15;;;;;;;9.80;72.37;99986.37;1717994;83;21234;-70
2021/01/01 06:35:21;;;;;;;10.55;5.33;;;;;;;9.71;72.59;99986.07;1735539;82;21599;-72
2021/01/01 06:37:56;;;;;;;7.85;4.47;;;;;;;9.70;72.64;99988.27;1747759;82;21182;-71
2021/01/01 06:40:31;;;;;;;9.68;4.28;;;;;;;9.75;72.70;99992.14;1748368;81;21611;-69
2021/01/01 06:43:07;;;;;;;11.03;4.17;;;;;;;9.64;73.15;99997.56;1748410;82;21321;-69
2021/01/01 06:45:43;;;;;;;7.80;3.60;;;;;;;9.79;72.99;100004.34;1732795;82;21296;-68
2021/01/01 06:48:28;;;;;;;7.80;3.47;;;;;;;9.89;72.82;100005.09;1726917;82;21135;-69
2021/01/01 06:50:56;;;;;;;8.68;4.10;;;;;;;9.97;72.77;100000.13;1718338;83;21310;-69
2021/01/01 06:53:28;;;;;;;9.23;4.15;;;;;;;10.06;72.70;99996.94;1727850;82;21601;-72
2021/01/01 06:56:10;;;;;;;10.80;3.90;;;;;;;10.15;72.60;99995.91;1749802;81;21200;-68
2021/01/01 06:58:38;;;;;;;8.48;4.28;;;;;;;10.21;72.41;99995.34;1748803;81;21151;-71
2021/01/01 07:01:16;;;;;;;9.20;3.67;;;;;;;10.27;72.31;99999.66;1748455;82;21140;-69
2021/01/01 07:03:44;;;;;;;6.87;3.72;;;;;;;10.33;72.16;100006.13;1730243;81;21127;-67
2021/01/01 07:06:18;;;;;;;9.15;4.10;;;;;;;10.37;72.05;100003.87;1747741;82;21147;-68
2021/01/01 07:08:46;;;;;;;7.53;3.85;;;;;;;10.48;71.98;100000.19;1748177;81;21115;-67
2021/01/01 07:11:26;;;;;;;5.95;3.87;;;;;;;10.52;71.79;100008.45;1748119;81;21136;-67
2021/01/01 07:14:01;;;;;;;10.75;4.37;;;;;;;10.53;71.88;100001.86;1745459;82;21099;-68
2021/01/01 07:16:33;;;;;;;8.83;3.67;;;;;;;10.67;71.61;100013.44;1748071;82;21163;-67
2021/01/01 07:19:01;;;;;;;7.25;3.08;;;;;;;10.72;71.51;100014.66;1748434;82;21551;-67
2021/01/01 07:21:29;;;;;;;11.05;3.62;;;;;;;10.69;71.51;100018.23;1748092;82;21181;-68
2021/01/01 07:23:57;;;;;;;8.93;4.50;;;;;;;10.71;71.57;100022.14;1738447;82;21567;-67
2021/01/01 07:26:27;;;;;;;7.85;4.08;;;;;;;10.78;71.54;100020.28;1734379;82;21139;-67
2021/01/01 07:28:55;;;;;;;;;;;;;;;10.93;71.31;100023.91;1740533;82;21569;-68
2021/01/01 07:31:23;;;;;;;6.50;3.30;;;;;;;11.04;71.23;100028.11;1735996;82;20154;-68
2021/01/01 07:33:52;;;;;;;7.35;3.77;;;;;;;11.33;70.63;100027.95;1715799;82;21186;-68
2021/01/01 07:36:20;;;;;;;7.33;3.37;;;;;;;11.10;71.57;100034.58;1698343;83;21150;-66
2021/01/01 07:38:48;;;;;;;11.43;3.72;;;;;;;11.21;71.64;100037.87;1688958;84;21669;-69
2021/01/01 07:41:18;;;;;;;10.93;3.45;;;;;;;11.41;71.01;100039.20;1689605;83;21174;-68
2021/01/01 07:43:48;;;;;;;5.67;3.02;;;;;;;11.49;70.86;100032.44;1701633;84;21218;-67
2021/01/01 07:46:17;;;;;;;5.15;3.20;;;;;;;11.79;69.80;100040.59;1675113;84;21288;-67
2021/01/01 07:48:44;;;;;;;5.92;3.25;;;;;;;11.86;69.55;100039.09;1701947;84;21554;-66
2021/01/01 07:51:12;;;;;;;7.95;3.60;;;;;;;11.90;69.03;100039.44;1651568;84;21616;-68
2021/01/01 07:53:39;;;;;;;7.45;3.20;;;;;;;11.98;68.58;100030.48;1701597;84;21201;-67
2021/01/01 07:56:08;;;;;;;6.53;2.75;;;;;;;12.13;68.62;100030.59;1701805;84;21328;-67
2021/01/01 07:58:37;;;;;;;6.90;2.98;;;;;;;12.16;68.92;100028.73;1701702;84;21178;-69
2021/01/01 08:01:09;;;;;;;5.97;2.87;;;;;;;12.16;67.82;100029.20;1700907;84;21601;-69
2021/01/01 08:03:39;;;;;;;4.87;2.58;;;;;;;12.21;67.84;100032.59;1701753;84;21177;-68
2021/01/01 08:06:07;;;;;;;5.80;3.22;;;;;;;12.24;68.21;100028.56;1701818;84;21647;-67
2021/01/01 08:08:34;;;;;;;7.22;3.98;;;;;;;12.36;67.99;100032.66;1700965;84;21605;-67
2021/01/01 08:11:02;;;;;;;6.62;3.20;;;;;;;12.45;67.22;100020.55;1701836;84;21308;-69
2021/01/01 08:13:32;;;;;;;10.15;3.65;;;;;;;12.47;67.86;100027.09;1701651;84;21150;-68
2021/01/01 08:16:12;;;;;;;6.42;3.33;;;;;;;12.39;68.12;100027.30;1731657;83;21604;-68
2021/01/01 08:18:40;;;;;;;;;;;;;;;12.27;67.65;100028.48;1698780;84;21213;-68
2021/01/01 08:21:07;;;;;;;8.08;3.80;;;;;;;12.33;68.60;100021.74;1702582;84;20534;-67
2021/01/01 08:23:58;;;;;;;6.90;3.50;;;;;;;12.41;68.33;100024.61;1695152;84;21138;-68
2021/01/01 08:26:26;;;;;;;5.62;3.12;;;;;;;12.49;68.41;100018.69;1695039;84;21174;-67
2021/01/01 08:28:54;;;;;;;4.85;3.08;;;;;;;12.60;67.54;100015.76;1695912;84;21186;-66
2021/01/01 08:31:22;;;;;;;8.75;3.80;;;;;;;12.65;67.07;100013.86;1672661;84;21171;-66
2021/01/01 08:33:54;;;;;;;7.60;4.25;;;;;;;12.72;67.01;100010.63;1682411;82;21180;-67
2021/01/01 08:36:34;;;;;;;6.45;3.85;;;;;;;12.79;67.00;100009.56;1698758;84;21147;-66
2021/01/01 08:39:12;;;;;;;8.73;4.15;;;;;;;12.87;66.98;100006.22;1673545;86;21133;-67
2021/01/01 08:41:46;;;;;;;7.17;4.08;;;;;;;12.92;65.86;100002.16;1670206;86;21322;-68
2021/01/01 08:44:16;;;;;;;6.60;4.20;;;;;;;13.03;65.43;100004.02;1703736;84;21589;-68
2021/01/01 08:46:44;;;;;;;5.97;4.70;;;;;;;13.13;65.48;99996.71;1702513;84;21177;-69
2021/01/01 08:49:20;;;;;;;7.65;3.87;;;;;;;13.25;65.63;100002.08;1730738;81;21588;-68
2021/01/01 08:51:49;;;;;;;7.50;4.00;;;;;;;13.31;64.75;100002.34;1734906;83;21215;-69
2021/01/01 08:54:25;;;;;;;7.22;3.35;;;;;;;13.43;64.60;100001.17;1696299;84;21178;-69
2021/01/01 08:56:57;;;;;;;6.37;3.50;;;;;;;13.51;63.59;100003.98;1735412;83;21607;-68
2021/01/01 08:59:26;;;;;;;8.15;3.65;;;;;;;13.60;63.75;100004.62;1704744;83;21110;-67
2021/01/01 09:01:54;;;;;;;7.53;3.65;;;;;;;13.69;63.92;100002.98;1705079;83;22510;-65
2021/01/01 09:04:26;;;;;;;6.47;3.70;;;;;;;13.79;63.49;100007.55;1703329;84;21643;-65
2021/01/01 09:06:59;;;;;;;6.12;3.70;;;;;;;13.89;63.28;100005.47;1684515;84;21220;-68
2021/01/01 09:09:29;;;;;;;7.00;3.58;;;;;;;13.94;62.67;100008.36;1681211;84;21186;-67
2021/01/01 09:12:19;;;;;;;7.42;3.85;;;;;;;14.00;62.32;100008.64;1701992;83;21223;-67
2021/01/01 09:14:53;;;;;;;5.87;3.60;;;;;;;14.03;61.36;100005.02;1703610;84;21562;-67
2021/01/01 09:17:22;;;;;;;6.78;3.98;;;;;;;14.10;60.41;100000.81;1703158;84;21149;-67
2021/01/01 09:20:26;;;;;;;7.00;4.25;;;;;;;14.20;61.36;100011.08;1694606;84;21188;-67
2021/01/01 09:23:02;;;;;;;6.78;3.70;;;;;;;14.22;60.47;100009.24;1707575;83;21105;-67
2021/01/01 09:25:30;;;;;;;7.53;4.12;;;;;;;14.30;60.69;100005.89;1702043;84;21332;-67
2021/01/01 09:27:59;;;;;;;5.35;3.42;;;;;;;14.39;60.38;100008.23;1749489;81;21119;-67
2021/01/01 09:30:30;;;;;;;6.95;3.90;;;;;;;14.36;60.32;100003.48;1732540;82;21550;-68
2021/01/01 09:33:02;;;;;;;6.12;3.45;;;;;;;14.37;60.18;100004.77;1742676;81;21562;-69
2021/01/01 09:35:30;;;;;;;7.05;3.60;;;;;;;14.43;60.27;99999.70;1738605;81;21188;-68
2021/01/01 09:38:03;;;;;;;6.28;3.22;;;;;;;14.53;60.16;100006.90;1730002;81;21592;-66
2021/01/01 09:40:34;;;;;;;7.37;3.75;;;;;;;14.57;59.82;100001.91;1732269;82;21166;-69
2021/01/01 09:43:05;;;;;;;7.25;3.40;;;;;;;14.57;59.28;99996.13;1732907;83;21147;-67
2021/01/01 09:45:37;;;;;;;7.53;3.50;;;;;;;14.66;59.32;99998.91;1732749;83;21174;-65
2021/01/01 09:48:07;;;;;;;6.83;3.20;;;;;;;14.76;58.73;99992.00;1731586;83;21574;-67
2021/01/01 09:50:36;;;;;;;;;;;;;;;14.80;59.06;99993.62;1673314;86;21179;-68
2021/01/01 09:53:05;;;;;;;7.30;3.62;;;;;;;14.70;58.89;99992.62;1698673;84;20254;-67
2021/01/01 09:55:33;;;;;;;6.17;3.27;;;;;;;14.66;57.85;99994.09;1731130;83;21653;-69
2021/01/01 09:58:01;;;;;;;6.67;3.55;;;;;;;14.74;58.23;99996.04;1701355;83;21277;-67
2021/01/01 10:00:31;;;;;;;6.50;3.75;;;;;;;14.76;58.28;99995.53;1725052;82;21724;-67
2021/01/01 10:02:59;;;;;;;6.20;3.52;;;;;;;14.84;58.62;99983.31;1728804;83;21146;-68
2021/01/01 10:05:27;;;;;;;4.90;3.37;;;;;;;14.94;58.45;99978.53;1757866;81;21158;-67
2021/01/01 10:07:54;;;;;;;6.50;3.60;;;;;;;14.96;57.66;99978.02;1699829;84;21578;-68
2021/01/01 10:10:23;;;;;;;7.22;3.98;;;;;;;14.93;57.96;99975.04;1750774;81;21166;-68
2021/01/01 10:12:52;;;;;;;7.80;3.92;;;;;;;15.03;58.68;99975.55;1762921;81;21162;-67
2021/01/01 10:15:19;;;;;;;8.73;4.30;;;;;;;15.12;58.81;99976.54;1758633;81;21127;-70
2021/01/01 10:17:47;;;;;;;6.92;3.77;;;;;;;15.18;57.76;99974.59;1752988;81;21661;-67
2021/01/01 10:20:15;;;;;;;7.87;3.75;;;;;;;15.05;57.25;99969.73;1732731;81;21184;-67
2021/01/01 10:22:42;;;;;;;6.50;3.83;;;;;;;14.94;57.83;99972.80;1741986;80;21585;-67
2021/01/01 10:25:11;;;;;;;5.78;3.40;;;;;;;14.75;58.21;99965.98;1742361;82;21154;-69
2021/01/01 10:27:39;;;;;;;8.80;5.00;;;;;;;14.69;58.33;99963.08;1727730;83;21174;-67
2021/01/01 10:30:08;;;;;;;6.60;4.17;;;;;;;14.60;58.71;99966.48;1727885;81;21654;-67
2021/01/01 10:32:36;;;;;;;5.58;4.12;;;;;;;14.52;59.28;99966.77;1727764;82;21186;-69
2021/01/01 10:35:05;;;;;;;6.75;4.60;;;;;;;14.46;58.86;99963.01;1745569;82;21718;-68
2021/01/01 10:37:32;;;;;;;7.90;4.58;;;;;;;14.45;58.78;99963.45;1724032;83;21202;-69
2021/01/01 10:40:05;;;;;;;9.73;4.03;;;;;;;14.42;58.34;99963.56;1715260;83;21163;-69
2021/01/01 10:42:32;;;;;;;7.72;4.22;;;;;;;14.53;58.23;99973.80;1728478;82;21158;-69
2021/01/01 10:45:02;;;;;;;5.47;3.70;;;;;;;14.55;57.40;99968.84;1692107;85;21569;-66
2021/01/01 10:47:30;;;;;;;6.25;3.65;;;;;;;14.54;56.26;99968.91;1724270;83;21198;-68
2021/01/01 10:49:58;;;;;;;5.37;3.87;;;;;;;14.59;56.31;99965.61;1724383;83;21591;-67
2021/01/01 10:52:26;;;;;;;5.60;3.47;;;;;;;14.66;54.67;99957.85;1724183;82;21198;-66
2021/01/01 10:54:58;;;;;;;6.80;4.50;;;;;;;14.76;54.52;99965.06;1723389;83;21196;-67
2021/01/01 10:57:26;;;;;;;6.50;4.22;;;;;;;14.80;54.62;99961.35;1724286;83;21170;-68
2021/01/01 10:59:55;;;;;;;7.10;3.95;;;;;;;14.87;54.19;99962.02;1724014;82;21198;-67
2021/01/01 11:02:25;;;;;;;5.60;3.30;;;;;;;14.93;53.32;99967.53;1723993;83;21191;-69
2021/01/01 11:04:52;;;;;;;5.35;3.50;;;;;;;15.15;52.20;99961.84;1715371;82;21171;-69
2021/01/01 11:07:20;;;;;;;6.33;3.75;;;;;;;14.95;53.36;99967.02;1714577;84;21183;-69
2021/01/01 11:09:48;;;;;;;6.45;3.37;;;;;;;14.99;53.88;99963.34;1714759;84;21610;-70
2021/01/01 11:12:16;;;;;;;6.17;3.58;;;;;;;15.05;54.16;99964.88;1704124;83;21680;-66
2021/01/01 11:15:20;;;;;;;8.60;3.90;;;;;;;15.12;53.87;99965.94;1724890;82;21595;-69
2021/01/01 12:21:45;;;;;;;5.35;3.45;;;;;;;14.64;56.67;100014.46;1754475;81;21145;-66
2021/01/01 12:26:37;;;;;;;6.05;4.12;;;;;;;14.43;57.09;100020.89;1747395;81;21224;-68
2021/01/01 12:29:04;;;;;;;5.72;3.65;;;;;;;14.33;57.27;100026.12;1741898;81;21142;-67
2021/01/01 12:31:35;;;;;;;5.22;3.62;;;;;;;14.22;57.30;100031.74;1739679;82;21126;-66
2021/01/01 12:34:01;;;;;;;5.92;3.70;;;;;;;14.12;56.39;100033.39;1740004;82;21601;-66
2021/01/01 12:36:29;;;;;;;8.05;4.10;;;;;;;14.05;56.20;100037.59;1742868;81;21157;-66
2021/01/01 12:38:57;;;;;;;6.17;3.90;;;;;;;13.83;56.56;100031.67;1761627;81;21566;-68
2021/01/01 12:41:25;;;;;;;6.78;3.98;;;;;;;13.74;56.80;100034.59;1768335;81;21146;-66
2021/01/01 12:43:53;;;;;;;6.45;4.05;;;;;;;13.62;57.11;100039.34;1739932;82;21552;-68
2021/01/01 12:46:21;;;;;;;6.60;3.87;;;;;;;13.47;57.45;100046.41;1740816;81;21202;-66